Portland, Missouri
Current Conditions -  °F | °C
As of 4:25 AM on Friday 24 Oct 2014 (Local Time) from KJEF Reporting Station
Moderate Fog Moderate Fog  
Wind Chill: 47°   Ceiling: 200
Heat Index: 47°   Visibility: 0.25mi
Dew Point: 46°   Wind: 0mph
Humidity: 97%   Direction: NA
Pressure: 30.1"   Gusts: NA
Location:  38.71°N, 91.72°W
Report Text: KJEF 240925Z AUTO 00000KT 1/4SM FG VV002 08/08 A3010 RMK AO2 T00830078
Loading
Personal Weather Stations






























Interactive Weather Map New forecast layout! Learn more

10-Day Weather Forecast

Advertisements
Track Severe Weather on mobile